sensor_id;sensor_type;location;lat;lon;timestamp;temperature;humidity
13464;DHT22;6804;48.774;9.174;2023-09-30T00:00:22;19.80;99.90
13464;DHT22;6804;48.774;9.174;2023-09-30T00:02:51;19.80;99.90
13464;DHT22;6804;48.774;9.174;2023-09-30T00:05:21;19.80;99.90
13464;DHT22;6804;48.774;9.174;2023-09-30T00:07:54;19.80;99.90
13464;DHT22;6804;48.774;9.174;2023-09-30T00:10:21;19.80;99.90
13464;DHT22;6804;48.774;9.174;2023-09-30T00:12:52;19.80;99.90
13464;DHT22;6804;48.774;9.174;2023-09-30T00:15:22;19.80;99.90
13464;DHT22;6804;48.774;9.174;2023-09-30T00:17:50;19.70;99.90
13464;DHT22;6804;48.774;9.174;2023-09-30T00:20:18;19.70;99.90
13464;DHT22;6804;48.774;9.174;2023-09-30T00:22:50;19.70;99.90
13464;DHT22;6804;48.774;9.174;2023-09-30T00:25:19;19.70;99.90
13464;DHT22;6804;48.774;9.174;2023-09-30T00:27:49;19.60;99.90
13464;DHT22;6804;48.774;9.174;2023-09-30T00:30:20;19.60;99.90
13464;DHT22;6804;48.774;9.174;2023-09-30T00:32:48;19.60;99.90
13464;DHT22;6804;48.774;9.174;2023-09-30T00:35:17;19.60;99.90
13464;DHT22;6804;48.774;9.174;2023-09-30T00:37:51;19.60;99.90
13464;DHT22;6804;48.774;9.174;2023-09-30T00:40:21;19.60;99.90
13464;DHT22;6804;48.774;9.174;2023-09-30T00:42:48;19.60;99.90
13464;DHT22;6804;48.774;9.174;2023-09-30T00:45:17;19.60;99.90
13464;DHT22;6804;48.774;9.174;2023-09-30T00:47:45;19.60;99.90
13464;DHT22;6804;48.774;9.174;2023-09-30T00:50:12;19.60;99.90
13464;DHT22;6804;48.774;9.174;2023-09-30T00:52:43;19.60;99.90
13464;DHT22;6804;48.774;9.174;2023-09-30T00:55:15;19.60;99.90
13464;DHT22;6804;48.774;9.174;2023-09-30T00:57:45;19.60;99.90
13464;DHT22;6804;48.774;9.174;2023-09-30T01:00:13;19.60;99.90
13464;DHT22;6804;48.774;9.174;2023-09-30T01:02:44;19.60;99.90
13464;DHT22;6804;48.774;9.174;2023-09-30T01:05:13;19.60;99.90
13464;DHT22;6804;48.774;9.174;2023-09-30T01:07:44;19.60;99.90
13464;DHT22;6804;48.774;9.174;2023-09-30T01:10:12;19.50;99.90
13464;DHT22;6804;48.774;9.174;2023-09-30T01:12:42;19.50;99.90
13464;DHT22;6804;48.774;9.174;2023-09-30T01:15:14;19.50;99.90
13464;DHT22;6804;48.774;9.174;2023-09-30T01:17:41;19.40;99.90
13464;DHT22;6804;48.774;9.174;2023-09-30T01:20:12;19.40;99.90
13464;DHT22;6804;48.774;9.174;2023-09-30T01:22:46;19.40;99.90
13464;DHT22;6804;48.774;9.174;2023-09-30T01:25:14;19.30;99.90
13464;DHT22;6804;48.774;9.174;2023-09-30T01:27:44;19.30;99.90
13464;DHT22;6804;48.774;9.174;2023-09-30T01:30:12;19.20;99.90
13464;DHT22;6804;48.774;9.174;2023-09-30T01:32:40;19.20;99.90
13464;DHT22;6804;48.774;9.174;2023-09-30T01:35:08;19.20;99.90
13464;DHT22;6804;48.774;9.174;2023-09-30T01:37:47;19.10;99.90
13464;DHT22;6804;48.774;9.174;2023-09-30T01:40:14;19.10;99.90
13464;DHT22;6804;48.774;9.174;2023-09-30T01:42:44;19.10;99.90
13464;DHT22;6804;48.774;9.174;2023-09-30T01:45:12;19.00;99.90
13464;DHT22;6804;48.774;9.174;2023-09-30T01:47:39;19.00;99.90
13464;DHT22;6804;48.774;9.174;2023-09-30T01:50:13;19.00;99.90
13464;DHT22;6804;48.774;9.174;2023-09-30T01:52:43;19.00;99.90
13464;DHT22;6804;48.774;9.174;2023-09-30T01:55:12;18.90;99.90
13464;DHT22;6804;48.774;9.174;2023-09-30T01:57:42;19.00;99.90
13464;DHT22;6804;48.774;9.174;2023-09-30T02:00:10;18.90;99.90
13464;DHT22;6804;48.774;9.174;2023-09-30T02:02:40;18.90;99.90
13464;DHT22;6804;48.774;9.174;2023-09-30T02:05:10;19.00;99.90
13464;DHT22;6804;48.774;9.174;2023-09-30T02:07:55;19.00;99.90
13464;DHT22;6804;48.774;9.174;2023-09-30T02:10:23;19.10;99.90
13464;DHT22;6804;48.774;9.174;2023-09-30T02:12:50;19.00;99.90
13464;DHT22;6804;48.774;9.174;2023-09-30T02:15:20;19.00;99.90
13464;DHT22;6804;48.774;9.174;2023-09-30T02:17:49;19.00;99.90
13464;DHT22;6804;48.774;9.174;2023-09-30T02:20:16;19.00;99.90
13464;DHT22;6804;48.774;9.174;2023-09-30T02:22:45;19.00;99.90
13464;DHT22;6804;48.774;9.174;2023-09-30T02:25:17;18.90;99.90
13464;DHT22;6804;48.774;9.174;2023-09-30T02:27:45;18.90;99.90
13464;DHT22;6804;48.774;9.174;2023-09-30T02:30:13;18.90;99.90
13464;DHT22;6804;48.774;9.174;2023-09-30T02:32:44;19.00;99.90
13464;DHT22;6804;48.774;9.174;2023-09-30T02:35:15;18.90;99.90
13464;DHT22;6804;48.774;9.174;2023-09-30T02:37:42;18.80;99.90
13464;DHT22;6804;48.774;9.174;2023-09-30T02:40:13;18.80;99.90
13464;DHT22;6804;48.774;9.174;2023-09-30T02:42:44;18.80;99.90
13464;DHT22;6804;48.774;9.174;2023-09-30T02:45:13;18.80;99.90
13464;DHT22;6804;48.774;9.174;2023-09-30T02:47:43;18.80;99.90
13464;DHT22;6804;48.774;9.174;2023-09-30T02:50:11;18.70;99.90
13464;DHT22;6804;48.774;9.174;2023-09-30T02:52:42;18.80;99.90
13464;DHT22;6804;48.774;9.174;2023-09-30T02:55:13;18.70;99.90
13464;DHT22;6804;48.774;9.174;2023-09-30T02:57:45;18.80;99.90
13464;DHT22;6804;48.774;9.174;2023-09-30T03:00:17;18.70;99.90
13464;DHT22;6804;48.774;9.174;2023-09-30T03:02:49;18.70;99.90
13464;DHT22;6804;48.774;9.174;2023-09-30T03:05:23;18.70;99.90
13464;DHT22;6804;48.774;9.174;2023-09-30T03:07:56;18.70;99.90
13464;DHT22;6804;48.774;9.174;2023-09-30T03:10:26;18.60;99.90
13464;DHT22;6804;48.774;9.174;2023-09-30T03:12:59;18.50;99.90
13464;DHT22;6804;48.774;9.174;2023-09-30T03:15:30;18.50;99.90
13464;DHT22;6804;48.774;9.174;2023-09-30T03:17:58;18.50;99.90
13464;DHT22;6804;48.774;9.174;2023-09-30T03:20:26;18.50;99.90
13464;DHT22;6804;48.774;9.174;2023-09-30T03:22:54;18.50;99.90
13464;DHT22;6804;48.774;9.174;2023-09-30T03:25:25;18.50;99.90
13464;DHT22;6804;48.774;9.174;2023-09-30T03:27:55;18.50;99.90
13464;DHT22;6804;48.774;9.174;2023-09-30T03:30:26;18.60;99.90
13464;DHT22;6804;48.774;9.174;2023-09-30T03:33:03;18.50;99.90
13464;DHT22;6804;48.774;9.174;2023-09-30T03:35:33;18.50;99.90
13464;DHT22;6804;48.774;9.174;2023-09-30T03:38:04;18.50;99.90
13464;DHT22;6804;48.774;9.174;2023-09-30T03:40:32;18.40;99.90
13464;DHT22;6804;48.774;9.174;2023-09-30T03:43:01;18.50;99.90
13464;DHT22;6804;48.774;9.174;2023-09-30T03:45:31;18.50;99.90
13464;DHT22;6804;48.774;9.174;2023-09-30T03:48:10;18.40;99.90
13464;DHT22;6804;48.774;9.174;2023-09-30T03:50:43;18.30;99.90
13464;DHT22;6804;48.774;9.174;2023-09-30T03:53:15;18.10;99.90
13464;DHT22;6804;48.774;9.174;2023-09-30T03:55:47;18.10;99.90
13464;DHT22;6804;48.774;9.174;2023-09-30T03:58:17;18.30;99.90
13464;DHT22;6804;48.774;9.174;2023-09-30T04:00:48;18.30;99.90
13464;DHT22;6804;48.774;9.174;2023-09-30T04:03:17;18.40;99.90
13464;DHT22;6804;48.774;9.174;2023-09-30T04:05:48;18.40;99.90
13464;DHT22;6804;48.774;9.174;2023-09-30T04:08:19;18.50;99.90
13464;DHT22;6804;48.774;9.174;2023-09-30T04:10:48;18.50;99.90
13464;DHT22;6804;48.774;9.174;2023-09-30T04:13:18;18.50;99.90
13464;DHT22;6804;48.774;9.174;2023-09-30T04:15:49;18.50;99.90
13464;DHT22;6804;48.774;9.174;2023-09-30T04:18:16;18.50;99.90
13464;DHT22;6804;48.774;9.174;2023-09-30T04:20:46;18.50;99.90
13464;DHT22;6804;48.774;9.174;2023-09-30T04:23:21;18.50;99.90
13464;DHT22;6804;48.774;9.174;2023-09-30T04:25:51;18.50;99.90
13464;DHT22;6804;48.774;9.174;2023-09-30T04:28:18;18.50;99.90
13464;DHT22;6804;48.774;9.174;2023-09-30T04:30:49;18.50;99.90
13464;DHT22;6804;48.774;9.174;2023-09-30T04:33:19;18.50;99.90
13464;DHT22;6804;48.774;9.174;2023-09-30T04:35:50;18.50;99.90
13464;DHT22;6804;48.774;9.174;2023-09-30T04:38:21;18.60;99.90
13464;DHT22;6804;48.774;9.174;2023-09-30T04:40:51;18.60;99.90
13464;DHT22;6804;48.774;9.174;2023-09-30T04:43:22;18.60;99.90
13464;DHT22;6804;48.774;9.174;2023-09-30T04:45:53;18.60;99.90
13464;DHT22;6804;48.774;9.174;2023-09-30T04:48:42;18.60;99.90
13464;DHT22;6804;48.774;9.174;2023-09-30T04:51:15;18.60;99.90
13464;DHT22;6804;48.774;9.174;2023-09-30T04:53:45;18.60;99.90
13464;DHT22;6804;48.774;9.174;2023-09-30T04:56:14;18.50;99.90
13464;DHT22;6804;48.774;9.174;2023-09-30T04:59:00;18.50;99.90
13464;DHT22;6804;48.774;9.174;2023-09-30T05:01:31;18.50;99.90
13464;DHT22;6804;48.774;9.174;2023-09-30T05:04:01;18.50;99.90
13464;DHT22;6804;48.774;9.174;2023-09-30T05:06:30;18.50;99.90
13464;DHT22;6804;48.774;9.174;2023-09-30T05:09:01;18.50;99.90
13464;DHT22;6804;48.774;9.174;2023-09-30T05:11:29;18.50;99.90
13464;DHT22;6804;48.774;9.174;2023-09-30T05:13:59;18.40;99.90
13464;DHT22;6804;48.774;9.174;2023-09-30T05:16:27;18.40;99.90
13464;DHT22;6804;48.774;9.174;2023-09-30T05:19:16;18.40;99.90
13464;DHT22;6804;48.774;9.174;2023-09-30T05:21:49;18.40;99.90
13464;DHT22;6804;48.774;9.174;2023-09-30T05:24:21;18.40;99.90
13464;DHT22;6804;48.774;9.174;2023-09-30T05:26:50;18.40;99.90
13464;DHT22;6804;48.774;9.174;2023-09-30T05:29:36;18.40;99.90
13464;DHT22;6804;48.774;9.174;2023-09-30T05:32:07;18.30;99.90
13464;DHT22;6804;48.774;9.174;2023-09-30T05:34:43;18.30;99.90
13464;DHT22;6804;48.774;9.174;2023-09-30T05:37:13;18.30;99.90
13464;DHT22;6804;48.774;9.174;2023-09-30T05:39:42;18.30;99.90
13464;DHT22;6804;48.774;9.174;2023-09-30T05:42:10;18.30;99.90
13464;DHT22;6804;48.774;9.174;2023-09-30T05:44:38;18.30;99.90
13464;DHT22;6804;48.774;9.174;2023-09-30T05:47:07;18.30;99.90
13464;DHT22;6804;48.774;9.174;2023-09-30T05:49:38;18.20;99.90
13464;DHT22;6804;48.774;9.174;2023-09-30T05:52:10;18.00;99.90
13464;DHT22;6804;48.774;9.174;2023-09-30T05:54:41;18.00;99.90
13464;DHT22;6804;48.774;9.174;2023-09-30T05:57:12;18.00;99.90
13464;DHT22;6804;48.774;9.174;2023-09-30T05:59:42;18.10;99.90
13464;DHT22;6804;48.774;9.174;2023-09-30T06:02:10;18.10;99.90
13464;DHT22;6804;48.774;9.174;2023-09-30T06:04:41;18.20;99.90
13464;DHT22;6804;48.774;9.174;2023-09-30T06:07:10;18.20;99.90
13464;DHT22;6804;48.774;9.174;2023-09-30T06:09:39;18.20;99.90
13464;DHT22;6804;48.774;9.174;2023-09-30T06:12:10;18.20;99.90
13464;DHT22;6804;48.774;9.174;2023-09-30T06:14:38;18.20;99.90
13464;DHT22;6804;48.774;9.174;2023-09-30T06:17:09;18.30;99.90
13464;DHT22;6804;48.774;9.174;2023-09-30T06:19:42;18.30;99.90
13464;DHT22;6804;48.774;9.174;2023-09-30T06:22:17;18.20;99.90
13464;DHT22;6804;48.774;9.174;2023-09-30T06:24:51;18.30;99.90
13464;DHT22;6804;48.774;9.174;2023-09-30T06:27:19;18.30;99.90
13464;DHT22;6804;48.774;9.174;2023-09-30T06:29:47;18.30;99.90
13464;DHT22;6804;48.774;9.174;2023-09-30T06:32:15;18.30;99.90
13464;DHT22;6804;48.774;9.174;2023-09-30T06:34:43;18.30;99.90
13464;DHT22;6804;48.774;9.174;2023-09-30T06:37:12;18.30;99.90
13464;DHT22;6804;48.774;9.174;2023-09-30T06:39:41;18.30;99.90
13464;DHT22;6804;48.774;9.174;2023-09-30T06:42:09;18.20;99.90
13464;DHT22;6804;48.774;9.174;2023-09-30T06:44:39;18.20;99.90
13464;DHT22;6804;48.774;9.174;2023-09-30T06:47:11;18.20;99.90
13464;DHT22;6804;48.774;9.174;2023-09-30T06:49:41;18.20;99.90
13464;DHT22;6804;48.774;9.174;2023-09-30T06:52:11;18.30;99.90
13464;DHT22;6804;48.774;9.174;2023-09-30T06:54:45;18.50;99.90
13464;DHT22;6804;48.774;9.174;2023-09-30T06:57:13;18.50;99.90
13464;DHT22;6804;48.774;9.174;2023-09-30T06:59:42;18.60;99.90
13464;DHT22;6804;48.774;9.174;2023-09-30T07:02:11;18.60;99.90
13464;DHT22;6804;48.774;9.174;2023-09-30T07:04:39;18.70;99.90
13464;DHT22;6804;48.774;9.174;2023-09-30T07:07:07;18.70;99.90
13464;DHT22;6804;48.774;9.174;2023-09-30T07:09:35;18.60;99.90
13464;DHT22;6804;48.774;9.174;2023-09-30T07:12:05;18.60;99.90
13464;DHT22;6804;48.774;9.174;2023-09-30T07:14:35;18.70;99.90
13464;DHT22;6804;48.774;9.174;2023-09-30T07:17:03;18.70;99.90
13464;DHT22;6804;48.774;9.174;2023-09-30T07:19:31;18.80;99.90
13464;DHT22;6804;48.774;9.174;2023-09-30T07:22:01;18.80;99.90
13464;DHT22;6804;48.774;9.174;2023-09-30T07:24:48;18.90;99.90
13464;DHT22;6804;48.774;9.174;2023-09-30T07:27:24;18.90;99.90
13464;DHT22;6804;48.774;9.174;2023-09-30T07:29:54;18.90;99.90
13464;DHT22;6804;48.774;9.174;2023-09-30T07:32:22;18.90;99.90
13464;DHT22;6804;48.774;9.174;2023-09-30T07:34:50;18.90;99.90
13464;DHT22;6804;48.774;9.174;2023-09-30T07:37:28;18.90;99.90
13464;DHT22;6804;48.774;9.174;2023-09-30T07:39:56;18.90;99.90
13464;DHT22;6804;48.774;9.174;2023-09-30T07:42:26;18.90;99.90
13464;DHT22;6804;48.774;9.174;2023-09-30T07:48:02;19.00;99.90
13464;DHT22;6804;48.774;9.174;2023-09-30T07:50:33;19.10;99.90
13464;DHT22;6804;48.774;9.174;2023-09-30T07:53:03;19.30;99.90
13464;DHT22;6804;48.774;9.174;2023-09-30T07:55:32;19.50;99.90
13464;DHT22;6804;48.774;9.174;2023-09-30T07:58:04;19.60;99.90
13464;DHT22;6804;48.774;9.174;2023-09-30T08:00:34;19.70;99.90
13464;DHT22;6804;48.774;9.174;2023-09-30T08:03:04;19.90;99.90
13464;DHT22;6804;48.774;9.174;2023-09-30T08:05:33;19.90;99.90
13464;DHT22;6804;48.774;9.174;2023-09-30T08:08:20;19.90;99.90
13464;DHT22;6804;48.774;9.174;2023-09-30T08:10:50;20.00;99.90
13464;DHT22;6804;48.774;9.174;2023-09-30T08:13:24;20.00;99.90
13464;DHT22;6804;48.774;9.174;2023-09-30T08:15:53;20.10;99.90
13464;DHT22;6804;48.774;9.174;2023-09-30T08:18:23;20.20;99.90
13464;DHT22;6804;48.774;9.174;2023-09-30T08:20:51;20.30;99.90
13464;DHT22;6804;48.774;9.174;2023-09-30T08:23:25;20.30;99.90
13464;DHT22;6804;48.774;9.174;2023-09-30T08:25:57;20.20;99.90
13464;DHT22;6804;48.774;9.174;2023-09-30T08:28:28;20.40;99.90
13464;DHT22;6804;48.774;9.174;2023-09-30T08:31:05;20.50;99.90
13464;DHT22;6804;48.774;9.174;2023-09-30T08:33:37;20.50;99.90
13464;DHT22;6804;48.774;9.174;2023-09-30T08:36:07;20.60;99.90
13464;DHT22;6804;48.774;9.174;2023-09-30T08:38:39;20.70;99.90
13464;DHT22;6804;48.774;9.174;2023-09-30T08:41:31;20.70;99.90
13464;DHT22;6804;48.774;9.174;2023-09-30T08:44:04;20.70;99.90
13464;DHT22;6804;48.774;9.174;2023-09-30T08:46:34;20.70;99.90
13464;DHT22;6804;48.774;9.174;2023-09-30T08:49:05;20.80;99.90
13464;DHT22;6804;48.774;9.174;2023-09-30T08:51:35;21.00;99.90
13464;DHT22;6804;48.774;9.174;2023-09-30T08:54:05;20.90;99.90
13464;DHT22;6804;48.774;9.174;2023-09-30T08:56:35;20.70;99.90
13464;DHT22;6804;48.774;9.174;2023-09-30T08:59:07;20.60;99.90
13464;DHT22;6804;48.774;9.174;2023-09-30T09:01:39;20.70;99.90
13464;DHT22;6804;48.774;9.174;2023-09-30T09:04:15;20.70;99.90
13464;DHT22;6804;48.774;9.174;2023-09-30T09:06:43;20.90;99.90
13464;DHT22;6804;48.774;9.174;2023-09-30T09:09:18;20.70;99.90
13464;DHT22;6804;48.774;9.174;2023-09-30T09:11:48;20.50;99.90
13464;DHT22;6804;48.774;9.174;2023-09-30T09:14:19;20.50;99.90
13464;DHT22;6804;48.774;9.174;2023-09-30T09:16:53;20.70;99.90
13464;DHT22;6804;48.774;9.174;2023-09-30T09:19:29;21.00;99.90
13464;DHT22;6804;48.774;9.174;2023-09-30T09:21:59;21.20;99.90
13464;DHT22;6804;48.774;9.174;2023-09-30T09:24:31;21.50;99.90
13464;DHT22;6804;48.774;9.174;2023-09-30T09:27:10;21.50;99.90
13464;DHT22;6804;48.774;9.174;2023-09-30T09:29:44;21.70;99.90
13464;DHT22;6804;48.774;9.174;2023-09-30T09:32:13;22.00;99.90
13464;DHT22;6804;48.774;9.174;2023-09-30T09:34:43;22.20;99.90
13464;DHT22;6804;48.774;9.174;2023-09-30T09:37:17;22.40;99.90
13464;DHT22;6804;48.774;9.174;2023-09-30T09:39:53;22.40;99.90
13464;DHT22;6804;48.774;9.174;2023-09-30T09:42:29;21.90;99.90
13464;DHT22;6804;48.774;9.174;2023-09-30T09:45:07;21.90;99.90
13464;DHT22;6804;48.774;9.174;2023-09-30T09:47:38;22.10;99.90
13464;DHT22;6804;48.774;9.174;2023-09-30T09:50:08;22.20;99.90
13464;DHT22;6804;48.774;9.174;2023-09-30T09:52:40;22.40;99.90
13464;DHT22;6804;48.774;9.174;2023-09-30T09:55:16;22.70;99.90
13464;DHT22;6804;48.774;9.174;2023-09-30T09:57:46;22.80;99.90
13464;DHT22;6804;48.774;9.174;2023-09-30T10:00:22;22.30;99.90
13464;DHT22;6804;48.774;9.174;2023-09-30T10:02:58;22.20;99.90
13464;DHT22;6804;48.774;9.174;2023-09-30T10:05:26;22.20;99.90
13464;DHT22;6804;48.774;9.174;2023-09-30T10:07:57;22.00;99.90
13464;DHT22;6804;48.774;9.174;2023-09-30T10:10:28;22.20;99.90
13464;DHT22;6804;48.774;9.174;2023-09-30T10:12:57;22.20;99.90
13464;DHT22;6804;48.774;9.174;2023-09-30T10:15:42;22.10;99.90
13464;DHT22;6804;48.774;9.174;2023-09-30T10:18:20;22.20;99.90
13464;DHT22;6804;48.774;9.174;2023-09-30T10:20:47;22.30;99.90
13464;DHT22;6804;48.774;9.174;2023-09-30T10:23:23;22.60;99.90
13464;DHT22;6804;48.774;9.174;2023-09-30T10:26:15;22.60;99.90
13464;DHT22;6804;48.774;9.174;2023-09-30T10:28:48;22.20;99.90
13464;DHT22;6804;48.774;9.174;2023-09-30T10:31:19;21.70;99.90
13464;DHT22;6804;48.774;9.174;2023-09-30T10:34:21;21.50;99.90
13464;DHT22;6804;48.774;9.174;2023-09-30T10:36:51;21.70;99.90
13464;DHT22;6804;48.774;9.174;2023-09-30T10:42:46;22.40;99.90
13464;DHT22;6804;48.774;9.174;2023-09-30T10:45:44;22.70;99.90
13464;DHT22;6804;48.774;9.174;2023-09-30T10:48:39;22.90;99.90
13464;DHT22;6804;48.774;9.174;2023-09-30T10:51:17;23.10;99.90
13464;DHT22;6804;48.774;9.174;2023-09-30T10:53:49;23.30;99.90
13464;DHT22;6804;48.774;9.174;2023-09-30T10:56:20;23.20;99.90
13464;DHT22;6804;48.774;9.174;2023-09-30T10:58:49;23.10;99.90
13464;DHT22;6804;48.774;9.174;2023-09-30T11:01:18;23.10;99.90
13464;DHT22;6804;48.774;9.174;2023-09-30T11:03:49;23.00;99.90
13464;DHT22;6804;48.774;9.174;2023-09-30T11:06:20;22.50;99.90
13464;DHT22;6804;48.774;9.174;2023-09-30T11:08:53;22.40;99.90
13464;DHT22;6804;48.774;9.174;2023-09-30T11:11:36;22.40;99.90
13464;DHT22;6804;48.774;9.174;2023-09-30T11:14:20;22.10;99.90
13464;DHT22;6804;48.774;9.174;2023-09-30T11:16:50;22.10;99.90
13464;DHT22;6804;48.774;9.174;2023-09-30T11:19:23;22.20;99.90
13464;DHT22;6804;48.774;9.174;2023-09-30T11:21:55;22.50;99.90
13464;DHT22;6804;48.774;9.174;2023-09-30T11:24:25;22.70;99.90
13464;DHT22;6804;48.774;9.174;2023-09-30T11:27:00;22.80;99.90
13464;DHT22;6804;48.774;9.174;2023-09-30T11:29:29;22.60;99.80
13464;DHT22;6804;48.774;9.174;2023-09-30T11:31:58;22.40;99.10
13464;DHT22;6804;48.774;9.174;2023-09-30T11:34:35;22.30;99.90
13464;DHT22;6804;48.774;9.174;2023-09-30T11:37:05;22.60;99.90
13464;DHT22;6804;48.774;9.174;2023-09-30T11:39:37;22.90;99.20
13464;DHT22;6804;48.774;9.174;2023-09-30T11:42:15;23.20;98.30
13464;DHT22;6804;48.774;9.174;2023-09-30T11:44:46;23.40;98.10
13464;DHT22;6804;48.774;9.174;2023-09-30T11:47:16;23.40;97.50
13464;DHT22;6804;48.774;9.174;2023-09-30T11:50:01;23.50;97.30
13464;DHT22;6804;48.774;9.174;2023-09-30T11:52:31;23.60;97.70
13464;DHT22;6804;48.774;9.174;2023-09-30T11:55:06;23.70;97.10
13464;DHT22;6804;48.774;9.174;2023-09-30T11:57:36;23.90;97.80
13464;DHT22;6804;48.774;9.174;2023-09-30T12:00:09;24.10;97.20
13464;DHT22;6804;48.774;9.174;2023-09-30T12:02:41;24.30;97.00
13464;DHT22;6804;48.774;9.174;2023-09-30T12:05:11;24.40;96.60
13464;DHT22;6804;48.774;9.174;2023-09-30T12:07:41;24.50;95.80
13464;DHT22;6804;48.774;9.174;2023-09-30T12:10:12;24.50;96.30
13464;DHT22;6804;48.774;9.174;2023-09-30T12:12:43;24.60;96.20
13464;DHT22;6804;48.774;9.174;2023-09-30T12:15:12;24.60;95.80
13464;DHT22;6804;48.774;9.174;2023-09-30T12:17:42;24.70;95.60
13464;DHT22;6804;48.774;9.174;2023-09-30T12:20:23;24.50;95.40
13464;DHT22;6804;48.774;9.174;2023-09-30T12:22:52;24.50;95.10
13464;DHT22;6804;48.774;9.174;2023-09-30T12:25:23;24.30;94.40
13464;DHT22;6804;48.774;9.174;2023-09-30T12:27:53;24.20;94.00
13464;DHT22;6804;48.774;9.174;2023-09-30T12:30:23;24.10;94.10
13464;DHT22;6804;48.774;9.174;2023-09-30T12:32:54;23.90;93.90
13464;DHT22;6804;48.774;9.174;2023-09-30T12:35:24;23.80;94.10
13464;DHT22;6804;48.774;9.174;2023-09-30T12:37:55;23.80;93.20
13464;DHT22;6804;48.774;9.174;2023-09-30T12:40:24;23.60;94.10
13464;DHT22;6804;48.774;9.174;2023-09-30T12:43:10;23.70;94.20
13464;DHT22;6804;48.774;9.174;2023-09-30T12:45:42;24.00;94.40
13464;DHT22;6804;48.774;9.174;2023-09-30T12:48:13;24.10;95.10
13464;DHT22;6804;48.774;9.174;2023-09-30T12:50:45;24.20;95.90
13464;DHT22;6804;48.774;9.174;2023-09-30T12:53:14;24.00;95.50
13464;DHT22;6804;48.774;9.174;2023-09-30T12:55:43;24.00;96.30
13464;DHT22;6804;48.774;9.174;2023-09-30T12:58:13;23.90;95.70
13464;DHT22;6804;48.774;9.174;2023-09-30T13:00:41;23.90;95.30
13464;DHT22;6804;48.774;9.174;2023-09-30T13:03:12;23.80;95.10
13464;DHT22;6804;48.774;9.174;2023-09-30T13:05:47;23.50;95.10
13464;DHT22;6804;48.774;9.174;2023-09-30T13:08:19;23.10;95.90
13464;DHT22;6804;48.774;9.174;2023-09-30T13:10:52;23.20;95.90
13464;DHT22;6804;48.774;9.174;2023-09-30T13:13:22;23.40;96.00
13464;DHT22;6804;48.774;9.174;2023-09-30T13:15:52;23.60;94.70
13464;DHT22;6804;48.774;9.174;2023-09-30T13:18:25;23.30;94.80
13464;DHT22;6804;48.774;9.174;2023-09-30T13:20:55;23.40;95.10
13464;DHT22;6804;48.774;9.174;2023-09-30T13:23:23;23.50;94.90
13464;DHT22;6804;48.774;9.174;2023-09-30T13:25:54;23.60;94.90
13464;DHT22;6804;48.774;9.174;2023-09-30T13:28:22;23.50;94.20
13464;DHT22;6804;48.774;9.174;2023-09-30T13:30:53;23.30;94.70
13464;DHT22;6804;48.774;9.174;2023-09-30T13:33:25;23.20;94.30
13464;DHT22;6804;48.774;9.174;2023-09-30T13:35:56;23.10;94.70
13464;DHT22;6804;48.774;9.174;2023-09-30T13:38:25;22.80;94.80
13464;DHT22;6804;48.774;9.174;2023-09-30T13:40:54;22.70;94.60
13464;DHT22;6804;48.774;9.174;2023-09-30T13:43:24;22.50;95.20
13464;DHT22;6804;48.774;9.174;2023-09-30T13:45:55;22.50;95.80
13464;DHT22;6804;48.774;9.174;2023-09-30T13:48:24;22.60;96.20
13464;DHT22;6804;48.774;9.174;2023-09-30T13:50:55;22.70;96.40
13464;DHT22;6804;48.774;9.174;2023-09-30T13:53:51;22.70;96.30
13464;DHT22;6804;48.774;9.174;2023-09-30T13:56:22;22.80;96.50
13464;DHT22;6804;48.774;9.174;2023-09-30T13:58:53;22.80;96.50
13464;DHT22;6804;48.774;9.174;2023-09-30T14:01:24;22.80;96.60
13464;DHT22;6804;48.774;9.174;2023-09-30T14:03:56;22.70;96.50
13464;DHT22;6804;48.774;9.174;2023-09-30T14:06:27;22.70;96.50
13464;DHT22;6804;48.774;9.174;2023-09-30T14:08:57;22.80;96.30
13464;DHT22;6804;48.774;9.174;2023-09-30T14:11:27;22.40;96.80
13464;DHT22;6804;48.774;9.174;2023-09-30T14:13:57;22.40;97.00
13464;DHT22;6804;48.774;9.174;2023-09-30T14:16:27;22.50;96.90
13464;DHT22;6804;48.774;9.174;2023-09-30T14:18:56;22.60;96.80
13464;DHT22;6804;48.774;9.174;2023-09-30T14:21:26;22.50;96.70
13464;DHT22;6804;48.774;9.174;2023-09-30T14:23:55;22.50;96.90
13464;DHT22;6804;48.774;9.174;2023-09-30T14:26:23;22.60;97.00
13464;DHT22;6804;48.774;9.174;2023-09-30T14:28:52;22.70;96.70
13464;DHT22;6804;48.774;9.174;2023-09-30T14:31:29;22.80;96.50
13464;DHT22;6804;48.774;9.174;2023-09-30T14:33:58;22.80;96.20
13464;DHT22;6804;48.774;9.174;2023-09-30T14:36:29;22.90;96.00
13464;DHT22;6804;48.774;9.174;2023-09-30T14:39:07;22.90;95.40
13464;DHT22;6804;48.774;9.174;2023-09-30T14:41:37;22.80;95.10
13464;DHT22;6804;48.774;9.174;2023-09-30T14:44:06;22.70;95.60
13464;DHT22;6804;48.774;9.174;2023-09-30T14:46:38;22.60;96.30
13464;DHT22;6804;48.774;9.174;2023-09-30T14:49:08;22.60;96.50
13464;DHT22;6804;48.774;9.174;2023-09-30T14:51:39;22.60;96.60
13464;DHT22;6804;48.774;9.174;2023-09-30T14:54:07;22.50;96.80
13464;DHT22;6804;48.774;9.174;2023-09-30T14:56:37;22.60;96.90
13464;DHT22;6804;48.774;9.174;2023-09-30T14:59:05;22.70;96.80
13464;DHT22;6804;48.774;9.174;2023-09-30T15:01:34;22.70;96.50
13464;DHT22;6804;48.774;9.174;2023-09-30T15:04:10;22.70;96.30
13464;DHT22;6804;48.774;9.174;2023-09-30T15:06:46;22.70;96.20
13464;DHT22;6804;48.774;9.174;2023-09-30T15:09:17;22.60;96.10
13464;DHT22;6804;48.774;9.174;2023-09-30T15:11:48;22.50;96.50
13464;DHT22;6804;48.774;9.174;2023-09-30T15:14:17;22.50;96.40
13464;DHT22;6804;48.774;9.174;2023-09-30T15:16:46;22.30;96.30
13464;DHT22;6804;48.774;9.174;2023-09-30T15:19:18;22.20;96.70
13464;DHT22;6804;48.774;9.174;2023-09-30T15:21:49;22.20;96.50
13464;DHT22;6804;48.774;9.174;2023-09-30T15:24:19;22.10;96.70
13464;DHT22;6804;48.774;9.174;2023-09-30T15:26:47;21.90;97.10
13464;DHT22;6804;48.774;9.174;2023-09-30T15:29:18;21.70;97.00
13464;DHT22;6804;48.774;9.174;2023-09-30T15:31:50;21.60;97.40
13464;DHT22;6804;48.774;9.174;2023-09-30T15:34:20;21.40;97.40
13464;DHT22;6804;48.774;9.174;2023-09-30T15:36:59;21.50;97.70
13464;DHT22;6804;48.774;9.174;2023-09-30T15:39:38;21.60;97.10
13464;DHT22;6804;48.774;9.174;2023-09-30T15:42:08;21.60;97.00
13464;DHT22;6804;48.774;9.174;2023-09-30T15:44:38;21.60;97.20
13464;DHT22;6804;48.774;9.174;2023-09-30T15:47:10;21.40;97.40
13464;DHT22;6804;48.774;9.174;2023-09-30T15:49:43;21.30;97.60
13464;DHT22;6804;48.774;9.174;2023-09-30T15:52:16;21.40;97.50
13464;DHT22;6804;48.774;9.174;2023-09-30T15:55:05;21.50;97.50
13464;DHT22;6804;48.774;9.174;2023-09-30T15:57:34;21.50;97.50
13464;DHT22;6804;48.774;9.174;2023-09-30T16:00:10;21.60;97.30
13464;DHT22;6804;48.774;9.174;2023-09-30T16:02:54;21.70;97.30
13464;DHT22;6804;48.774;9.174;2023-09-30T16:05:25;21.70;96.60
13464;DHT22;6804;48.774;9.174;2023-09-30T16:08:01;21.50;97.00
13464;DHT22;6804;48.774;9.174;2023-09-30T16:10:31;21.40;97.00
13464;DHT22;6804;48.774;9.174;2023-09-30T16:13:03;21.20;97.60
13464;DHT22;6804;48.774;9.174;2023-09-30T16:15:38;21.30;97.60
13464;DHT22;6804;48.774;9.174;2023-09-30T16:18:09;21.40;97.60